sensor_id;sensor_type;location;lat;lon;timestamp;P1;durP1;ratioP1;P2;durP2;ratioP2
21601;SDS011;10963;50.934;4.668;2023-03-14T00:00:13;6.93;;;1.23;;
21601;SDS011;10963;50.934;4.668;2023-03-14T00:02:39;3.93;;;1.20;;
21601;SDS011;10963;50.934;4.668;2023-03-14T00:05:08;4.70;;;1.03;;
21601;SDS011;10963;50.934;4.668;2023-03-14T00:07:35;4.70;;;1.03;;
21601;SDS011;10963;50.934;4.668;2023-03-14T00:10:05;7.07;;;1.03;;
21601;SDS011;10963;50.934;4.668;2023-03-14T00:12:34;3.87;;;1.07;;
21601;SDS011;10963;50.934;4.668;2023-03-14T00:15:01;8.03;;;1.43;;
21601;SDS011;10963;50.934;4.668;2023-03-14T00:17:28;5.37;;;1.37;;
21601;SDS011;10963;50.934;4.668;2023-03-14T00:19:55;7.53;;;1.17;;
21601;SDS011;10963;50.934;4.668;2023-03-14T00:22:21;4.43;;;1.47;;
21601;SDS011;10963;50.934;4.668;2023-03-14T00:24:47;4.93;;;1.43;;
21601;SDS011;10963;50.934;4.668;2023-03-14T00:27:15;3.93;;;1.40;;
21601;SDS011;10963;50.934;4.668;2023-03-14T00:29:42;8.53;;;1.90;;
21601;SDS011;10963;50.934;4.668;2023-03-14T00:32:10;6.53;;;1.47;;
21601;SDS011;10963;50.934;4.668;2023-03-14T00:34:36;9.33;;;2.30;;
21601;SDS011;10963;50.934;4.668;2023-03-14T00:37:04;8.90;;;2.00;;
21601;SDS011;10963;50.934;4.668;2023-03-14T00:39:30;9.03;;;2.20;;
21601;SDS011;10963;50.934;4.668;2023-03-14T00:42:01;4.83;;;1.90;;
21601;SDS011;10963;50.934;4.668;2023-03-14T00:44:29;6.40;;;1.40;;
21601;SDS011;10963;50.934;4.668;2023-03-14T00:46:59;9.57;;;1.93;;
21601;SDS011;10963;50.934;4.668;2023-03-14T00:49:25;7.73;;;1.67;;
21601;SDS011;10963;50.934;4.668;2023-03-14T00:51:53;10.43;;;2.23;;
21601;SDS011;10963;50.934;4.668;2023-03-14T00:54:20;3.73;;;1.57;;
21601;SDS011;10963;50.934;4.668;2023-03-14T00:56:46;12.27;;;1.93;;
21601;SDS011;10963;50.934;4.668;2023-03-14T00:59:15;10.93;;;2.07;;
21601;SDS011;10963;50.934;4.668;2023-03-14T01:01:42;5.53;;;1.60;;
21601;SDS011;10963;50.934;4.668;2023-03-14T01:04:10;6.47;;;1.60;;
21601;SDS011;10963;50.934;4.668;2023-03-14T01:06:39;8.70;;;1.80;;
21601;SDS011;10963;50.934;4.668;2023-03-14T01:09:04;10.30;;;1.80;;
21601;SDS011;10963;50.934;4.668;2023-03-14T01:11:31;7.27;;;2.10;;
21601;SDS011;10963;50.934;4.668;2023-03-14T01:13:58;9.23;;;2.30;;
21601;SDS011;10963;50.934;4.668;2023-03-14T01:16:26;8.17;;;1.67;;
21601;SDS011;10963;50.934;4.668;2023-03-14T01:18:53;12.20;;;2.70;;
21601;SDS011;10963;50.934;4.668;2023-03-14T01:21:27;9.40;;;2.30;;
21601;SDS011;10963;50.934;4.668;2023-03-14T01:23:57;5.63;;;1.70;;
21601;SDS011;10963;50.934;4.668;2023-03-14T01:26:25;7.80;;;1.87;;
21601;SDS011;10963;50.934;4.668;2023-03-14T01:28:53;7.87;;;3.10;;
21601;SDS011;10963;50.934;4.668;2023-03-14T01:31:21;8.37;;;2.00;;
21601;SDS011;10963;50.934;4.668;2023-03-14T01:33:48;7.70;;;1.80;;
21601;SDS011;10963;50.934;4.668;2023-03-14T01:36:19;13.77;;;2.20;;
21601;SDS011;10963;50.934;4.668;2023-03-14T01:38:45;7.90;;;1.60;;
21601;SDS011;10963;50.934;4.668;2023-03-14T01:41:15;8.30;;;1.70;;
21601;SDS011;10963;50.934;4.668;2023-03-14T01:43:42;9.10;;;2.37;;
21601;SDS011;10963;50.934;4.668;2023-03-14T01:54:30;8.57;;;2.53;;
21601;SDS011;10963;50.934;4.668;2023-03-14T01:56:58;13.67;;;2.57;;
21601;SDS011;10963;50.934;4.668;2023-03-14T01:59:48;9.73;;;2.00;;
21601;SDS011;10963;50.934;4.668;2023-03-14T02:02:19;7.13;;;1.80;;
21601;SDS011;10963;50.934;4.668;2023-03-14T02:04:45;5.73;;;1.90;;
21601;SDS011;10963;50.934;4.668;2023-03-14T02:07:16;9.90;;;2.60;;
21601;SDS011;10963;50.934;4.668;2023-03-14T02:09:44;10.97;;;1.60;;
21601;SDS011;10963;50.934;4.668;2023-03-14T02:12:13;4.97;;;1.47;;
21601;SDS011;10963;50.934;4.668;2023-03-14T02:14:41;4.97;;;1.57;;
21601;SDS011;10963;50.934;4.668;2023-03-14T02:17:12;5.67;;;1.67;;
21601;SDS011;10963;50.934;4.668;2023-03-14T02:22:11;1.87;;;0.90;;
21601;SDS011;10963;50.934;4.668;2023-03-14T02:24:45;3.17;;;1.07;;
21601;SDS011;10963;50.934;4.668;2023-03-14T02:27:20;7.20;;;1.17;;
21601;SDS011;10963;50.934;4.668;2023-03-14T02:29:53;7.37;;;1.17;;
21601;SDS011;10963;50.934;4.668;2023-03-14T02:32:20;3.53;;;0.80;;
21601;SDS011;10963;50.934;4.668;2023-03-14T02:34:56;4.53;;;0.90;;
21601;SDS011;10963;50.934;4.668;2023-03-14T02:37:25;3.43;;;1.00;;
21601;SDS011;10963;50.934;4.668;2023-03-14T02:39:57;4.37;;;0.90;;
21601;SDS011;10963;50.934;4.668;2023-03-14T02:42:25;5.77;;;1.27;;
21601;SDS011;10963;50.934;4.668;2023-03-14T02:45:31;2.60;;;1.10;;
21601;SDS011;10963;50.934;4.668;2023-03-14T02:47:47;3.07;;;0.70;;
21601;SDS011;10963;50.934;4.668;2023-03-14T02:50:22;3.17;;;0.93;;
21601;SDS011;10963;50.934;4.668;2023-03-14T02:52:53;8.40;;;0.87;;
21601;SDS011;10963;50.934;4.668;2023-03-14T02:55:22;3.00;;;1.00;;
21601;SDS011;10963;50.934;4.668;2023-03-14T02:57:51;3.80;;;0.83;;
21601;SDS011;10963;50.934;4.668;2023-03-14T03:00:17;6.77;;;1.57;;
21601;SDS011;10963;50.934;4.668;2023-03-14T03:02:46;2.83;;;1.03;;
21601;SDS011;10963;50.934;4.668;2023-03-14T03:05:12;6.53;;;1.13;;
21601;SDS011;10963;50.934;4.668;2023-03-14T03:07:37;4.53;;;1.10;;
21601;SDS011;10963;50.934;4.668;2023-03-14T03:10:03;6.27;;;1.10;;
21601;SDS011;10963;50.934;4.668;2023-03-14T03:12:31;3.57;;;1.57;;
21601;SDS011;10963;50.934;4.668;2023-03-14T03:14:57;6.00;;;0.87;;
21601;SDS011;10963;50.934;4.668;2023-03-14T03:17:23;1.90;;;1.03;;
21601;SDS011;10963;50.934;4.668;2023-03-14T03:19:49;3.53;;;1.03;;
21601;SDS011;10963;50.934;4.668;2023-03-14T03:22:14;4.30;;;1.13;;
21601;SDS011;10963;50.934;4.668;2023-03-14T03:24:40;5.60;;;1.07;;
21601;SDS011;10963;50.934;4.668;2023-03-14T03:27:06;5.37;;;1.20;;
21601;SDS011;10963;50.934;4.668;2023-03-14T03:29:31;6.87;;;1.50;;
21601;SDS011;10963;50.934;4.668;2023-03-14T03:31:57;3.90;;;1.30;;
21601;SDS011;10963;50.934;4.668;2023-03-14T03:34:23;7.23;;;1.33;;
21601;SDS011;10963;50.934;4.668;2023-03-14T03:36:48;4.87;;;1.13;;
21601;SDS011;10963;50.934;4.668;2023-03-14T03:39:14;7.20;;;2.17;;
21601;SDS011;10963;50.934;4.668;2023-03-14T03:41:40;7.37;;;2.07;;
21601;SDS011;10963;50.934;4.668;2023-03-14T03:44:05;11.77;;;2.20;;
21601;SDS011;10963;50.934;4.668;2023-03-14T03:46:31;5.27;;;2.17;;
21601;SDS011;10963;50.934;4.668;2023-03-14T03:49:00;8.03;;;2.40;;
21601;SDS011;10963;50.934;4.668;2023-03-14T03:51:29;9.03;;;2.37;;
21601;SDS011;10963;50.934;4.668;2023-03-14T03:53:55;7.27;;;2.43;;
21601;SDS011;10963;50.934;4.668;2023-03-14T03:56:22;5.63;;;1.77;;
21601;SDS011;10963;50.934;4.668;2023-03-14T03:58:47;18.37;;;2.47;;
21601;SDS011;10963;50.934;4.668;2023-03-14T04:01:13;6.93;;;2.27;;
21601;SDS011;10963;50.934;4.668;2023-03-14T04:03:39;7.87;;;2.10;;
21601;SDS011;10963;50.934;4.668;2023-03-14T04:06:10;9.57;;;2.33;;
21601;SDS011;10963;50.934;4.668;2023-03-14T04:08:37;9.73;;;2.17;;
21601;SDS011;10963;50.934;4.668;2023-03-14T04:11:04;10.70;;;2.77;;
21601;SDS011;10963;50.934;4.668;2023-03-14T04:13:35;11.60;;;1.90;;
21601;SDS011;10963;50.934;4.668;2023-03-14T04:16:00;6.90;;;1.93;;
21601;SDS011;10963;50.934;4.668;2023-03-14T04:18:26;6.93;;;2.30;;
21601;SDS011;10963;50.934;4.668;2023-03-14T04:20:55;6.57;;;1.93;;
21601;SDS011;10963;50.934;4.668;2023-03-14T04:23:22;8.93;;;2.10;;
21601;SDS011;10963;50.934;4.668;2023-03-14T04:25:52;7.47;;;2.30;;
21601;SDS011;10963;50.934;4.668;2023-03-14T04:28:19;4.63;;;1.80;;
21601;SDS011;10963;50.934;4.668;2023-03-14T04:30:44;6.13;;;2.10;;
21601;SDS011;10963;50.934;4.668;2023-03-14T04:33:12;5.40;;;1.83;;
21601;SDS011;10963;50.934;4.668;2023-03-14T04:35:44;6.43;;;2.10;;
21601;SDS011;10963;50.934;4.668;2023-03-14T04:38:11;5.13;;;2.10;;
21601;SDS011;10963;50.934;4.668;2023-03-14T04:40:42;6.70;;;2.13;;
21601;SDS011;10963;50.934;4.668;2023-03-14T04:43:11;4.53;;;1.70;;
21601;SDS011;10963;50.934;4.668;2023-03-14T04:45:37;5.47;;;2.13;;
21601;SDS011;10963;50.934;4.668;2023-03-14T04:48:06;6.27;;;2.03;;
21601;SDS011;10963;50.934;4.668;2023-03-14T04:50:34;4.87;;;2.23;;
21601;SDS011;10963;50.934;4.668;2023-03-14T04:53:00;5.33;;;2.27;;
21601;SDS011;10963;50.934;4.668;2023-03-14T04:55:25;5.07;;;1.70;;
21601;SDS011;10963;50.934;4.668;2023-03-14T04:57:53;4.70;;;1.97;;
21601;SDS011;10963;50.934;4.668;2023-03-14T05:00:19;5.90;;;1.80;;
21601;SDS011;10963;50.934;4.668;2023-03-14T05:02:45;3.10;;;1.40;;
21601;SDS011;10963;50.934;4.668;2023-03-14T05:05:13;6.67;;;1.87;;
21601;SDS011;10963;50.934;4.668;2023-03-14T05:07:39;7.00;;;2.07;;
21601;SDS011;10963;50.934;4.668;2023-03-14T05:10:07;5.77;;;1.60;;
21601;SDS011;10963;50.934;4.668;2023-03-14T05:12:35;4.30;;;1.93;;
21601;SDS011;10963;50.934;4.668;2023-03-14T05:15:01;8.23;;;1.93;;
21601;SDS011;10963;50.934;4.668;2023-03-14T05:17:27;5.27;;;1.70;;
21601;SDS011;10963;50.934;4.668;2023-03-14T05:19:59;5.47;;;2.23;;
21601;SDS011;10963;50.934;4.668;2023-03-14T05:22:24;4.13;;;1.83;;
21601;SDS011;10963;50.934;4.668;2023-03-14T05:24:50;3.67;;;2.03;;
21601;SDS011;10963;50.934;4.668;2023-03-14T05:27:24;5.77;;;2.13;;
21601;SDS011;10963;50.934;4.668;2023-03-14T05:29:52;3.37;;;2.10;;
21601;SDS011;10963;50.934;4.668;2023-03-14T05:32:20;5.43;;;2.30;;
21601;SDS011;10963;50.934;4.668;2023-03-14T05:34:46;3.87;;;2.07;;
21601;SDS011;10963;50.934;4.668;2023-03-14T05:37:11;3.63;;;2.07;;
21601;SDS011;10963;50.934;4.668;2023-03-14T05:39:37;2.80;;;1.90;;
21601;SDS011;10963;50.934;4.668;2023-03-14T05:42:03;6.37;;;2.40;;
21601;SDS011;10963;50.934;4.668;2023-03-14T05:44:31;5.60;;;2.73;;
21601;SDS011;10963;50.934;4.668;2023-03-14T05:46:57;3.93;;;2.20;;
21601;SDS011;10963;50.934;4.668;2023-03-14T05:49:22;4.60;;;2.10;;
21601;SDS011;10963;50.934;4.668;2023-03-14T05:51:48;4.87;;;3.00;;
21601;SDS011;10963;50.934;4.668;2023-03-14T05:54:14;9.13;;;2.50;;
21601;SDS011;10963;50.934;4.668;2023-03-14T05:56:40;5.10;;;2.03;;
21601;SDS011;10963;50.934;4.668;2023-03-14T05:59:05;5.67;;;2.30;;
21601;SDS011;10963;50.934;4.668;2023-03-14T06:01:33;3.90;;;2.20;;
21601;SDS011;10963;50.934;4.668;2023-03-14T06:03:59;5.37;;;2.43;;
21601;SDS011;10963;50.934;4.668;2023-03-14T06:06:25;4.83;;;2.57;;
21601;SDS011;10963;50.934;4.668;2023-03-14T06:08:50;4.37;;;2.60;;
21601;SDS011;10963;50.934;4.668;2023-03-14T06:11:18;4.93;;;2.43;;
21601;SDS011;10963;50.934;4.668;2023-03-14T06:13:44;4.40;;;2.17;;
21601;SDS011;10963;50.934;4.668;2023-03-14T06:16:11;3.00;;;2.10;;
21601;SDS011;10963;50.934;4.668;2023-03-14T06:18:37;3.10;;;2.30;;
21601;SDS011;10963;50.934;4.668;2023-03-14T06:21:02;3.43;;;2.40;;
21601;SDS011;10963;50.934;4.668;2023-03-14T06:23:28;3.63;;;2.30;;
21601;SDS011;10963;50.934;4.668;2023-03-14T06:25:56;3.87;;;2.20;;
21601;SDS011;10963;50.934;4.668;2023-03-14T06:28:22;3.67;;;2.50;;
21601;SDS011;10963;50.934;4.668;2023-03-14T06:30:48;2.63;;;2.27;;
21601;SDS011;10963;50.934;4.668;2023-03-14T06:33:14;5.23;;;2.03;;
21601;SDS011;10963;50.934;4.668;2023-03-14T06:35:42;5.57;;;2.40;;
21601;SDS011;10963;50.934;4.668;2023-03-14T06:38:07;7.47;;;2.43;;
21601;SDS011;10963;50.934;4.668;2023-03-14T06:40:35;4.60;;;2.63;;
21601;SDS011;10963;50.934;4.668;2023-03-14T06:43:01;3.63;;;2.30;;
21601;SDS011;10963;50.934;4.668;2023-03-14T06:45:27;3.03;;;2.30;;
21601;SDS011;10963;50.934;4.668;2023-03-14T06:47:55;4.33;;;2.23;;
21601;SDS011;10963;50.934;4.668;2023-03-14T06:50:23;3.60;;;2.33;;
21601;SDS011;10963;50.934;4.668;2023-03-14T06:52:51;3.27;;;2.23;;
21601;SDS011;10963;50.934;4.668;2023-03-14T06:55:19;2.70;;;1.83;;
21601;SDS011;10963;50.934;4.668;2023-03-14T06:57:46;4.40;;;2.10;;
21601;SDS011;10963;50.934;4.668;2023-03-14T07:00:12;4.60;;;2.43;;
21601;SDS011;10963;50.934;4.668;2023-03-14T07:02:38;3.27;;;1.90;;
21601;SDS011;10963;50.934;4.668;2023-03-14T07:05:04;6.63;;;1.97;;
21601;SDS011;10963;50.934;4.668;2023-03-14T07:07:31;2.67;;;1.70;;
21601;SDS011;10963;50.934;4.668;2023-03-14T07:09:59;3.37;;;1.97;;
21601;SDS011;10963;50.934;4.668;2023-03-14T07:12:25;1.70;;;1.60;;
21601;SDS011;10963;50.934;4.668;2023-03-14T07:14:55;2.00;;;1.50;;
21601;SDS011;10963;50.934;4.668;2023-03-14T07:17:21;1.50;;;1.40;;
21601;SDS011;10963;50.934;4.668;2023-03-14T07:19:48;3.27;;;1.57;;
21601;SDS011;10963;50.934;4.668;2023-03-14T07:22:16;2.67;;;1.57;;
21601;SDS011;10963;50.934;4.668;2023-03-14T07:24:44;3.57;;;2.27;;
21601;SDS011;10963;50.934;4.668;2023-03-14T07:27:10;2.50;;;1.33;;
21601;SDS011;10963;50.934;4.668;2023-03-14T07:29:35;3.13;;;1.10;;
21601;SDS011;10963;50.934;4.668;2023-03-14T07:32:01;3.07;;;1.07;;
21601;SDS011;10963;50.934;4.668;2023-03-14T07:34:28;3.93;;;1.40;;
21601;SDS011;10963;50.934;4.668;2023-03-14T07:36:53;2.90;;;1.43;;
21601;SDS011;10963;50.934;4.668;2023-03-14T07:39:19;4.27;;;1.30;;
21601;SDS011;10963;50.934;4.668;2023-03-14T07:41:47;3.57;;;1.37;;
21601;SDS011;10963;50.934;4.668;2023-03-14T07:44:13;6.60;;;1.80;;
21601;SDS011;10963;50.934;4.668;2023-03-14T07:46:38;3.47;;;1.83;;
21601;SDS011;10963;50.934;4.668;2023-03-14T07:49:04;6.07;;;2.00;;
21601;SDS011;10963;50.934;4.668;2023-03-14T07:51:30;6.23;;;1.87;;
21601;SDS011;10963;50.934;4.668;2023-03-14T07:53:58;4.67;;;2.03;;
21601;SDS011;10963;50.934;4.668;2023-03-14T07:56:23;5.43;;;1.90;;
21601;SDS011;10963;50.934;4.668;2023-03-14T07:58:51;3.33;;;1.73;;
21601;SDS011;10963;50.934;4.668;2023-03-14T08:01:17;6.07;;;1.70;;
21601;SDS011;10963;50.934;4.668;2023-03-14T08:03:45;4.50;;;1.90;;
21601;SDS011;10963;50.934;4.668;2023-03-14T08:06:13;4.50;;;1.83;;
21601;SDS011;10963;50.934;4.668;2023-03-14T08:08:39;8.13;;;1.97;;
21601;SDS011;10963;50.934;4.668;2023-03-14T08:11:05;5.13;;;1.97;;
21601;SDS011;10963;50.934;4.668;2023-03-14T08:13:33;3.33;;;1.70;;
21601;SDS011;10963;50.934;4.668;2023-03-14T08:16:02;6.17;;;2.23;;
21601;SDS011;10963;50.934;4.668;2023-03-14T08:18:31;10.33;;;2.40;;
21601;SDS011;10963;50.934;4.668;2023-03-14T08:20:59;4.77;;;2.57;;
21601;SDS011;10963;50.934;4.668;2023-03-14T08:23:30;6.03;;;2.40;;
21601;SDS011;10963;50.934;4.668;2023-03-14T08:25:55;5.67;;;2.33;;
21601;SDS011;10963;50.934;4.668;2023-03-14T08:28:21;6.97;;;2.57;;
21601;SDS011;10963;50.934;4.668;2023-03-14T08:30:50;6.63;;;2.70;;
21601;SDS011;10963;50.934;4.668;2023-03-14T08:33:15;4.13;;;2.60;;
21601;SDS011;10963;50.934;4.668;2023-03-14T08:35:43;5.67;;;2.63;;
21601;SDS011;10963;50.934;4.668;2023-03-14T08:38:09;4.20;;;2.73;;
21601;SDS011;10963;50.934;4.668;2023-03-14T08:40:35;5.87;;;2.40;;
21601;SDS011;10963;50.934;4.668;2023-03-14T08:43:00;4.27;;;2.40;;
21601;SDS011;10963;50.934;4.668;2023-03-14T08:45:28;10.37;;;3.10;;
21601;SDS011;10963;50.934;4.668;2023-03-14T08:47:54;4.37;;;2.50;;
21601;SDS011;10963;50.934;4.668;2023-03-14T08:50:20;4.93;;;2.47;;
21601;SDS011;10963;50.934;4.668;2023-03-14T08:52:45;5.50;;;2.47;;
21601;SDS011;10963;50.934;4.668;2023-03-14T08:55:11;3.93;;;1.70;;
21601;SDS011;10963;50.934;4.668;2023-03-14T08:57:37;4.97;;;1.83;;
21601;SDS011;10963;50.934;4.668;2023-03-14T09:00:05;5.20;;;1.77;;
21601;SDS011;10963;50.934;4.668;2023-03-14T09:02:39;4.33;;;1.50;;
21601;SDS011;10963;50.934;4.668;2023-03-14T09:05:10;4.50;;;1.33;;
21601;SDS011;10963;50.934;4.668;2023-03-14T09:07:41;4.13;;;2.03;;
21601;SDS011;10963;50.934;4.668;2023-03-14T09:10:07;4.87;;;1.83;;
21601;SDS011;10963;50.934;4.668;2023-03-14T09:12:36;5.27;;;2.47;;
21601;SDS011;10963;50.934;4.668;2023-03-14T09:15:02;5.37;;;2.33;;
21601;SDS011;10963;50.934;4.668;2023-03-14T09:17:30;5.97;;;2.30;;
21601;SDS011;10963;50.934;4.668;2023-03-14T09:19:58;2.27;;;1.60;;
21601;SDS011;10963;50.934;4.668;2023-03-14T09:22:29;4.17;;;1.80;;
21601;SDS011;10963;50.934;4.668;2023-03-14T09:24:54;5.93;;;3.07;;
21601;SDS011;10963;50.934;4.668;2023-03-14T09:27:20;8.67;;;2.73;;
21601;SDS011;10963;50.934;4.668;2023-03-14T09:29:46;7.97;;;2.90;;
21601;SDS011;10963;50.934;4.668;2023-03-14T09:32:11;7.87;;;3.37;;
21601;SDS011;10963;50.934;4.668;2023-03-14T09:34:37;4.73;;;3.27;;
21601;SDS011;10963;50.934;4.668;2023-03-14T09:37:03;7.20;;;2.70;;
21601;SDS011;10963;50.934;4.668;2023-03-14T09:39:31;4.17;;;2.80;;
21601;SDS011;10963;50.934;4.668;2023-03-14T09:41:59;5.17;;;3.27;;
21601;SDS011;10963;50.934;4.668;2023-03-14T09:44:42;6.03;;;2.67;;
21601;SDS011;10963;50.934;4.668;2023-03-14T09:47:27;6.33;;;3.43;;
21601;SDS011;10963;50.934;4.668;2023-03-14T09:49:54;7.13;;;3.63;;
21601;SDS011;10963;50.934;4.668;2023-03-14T09:52:24;4.57;;;3.70;;
21601;SDS011;10963;50.934;4.668;2023-03-14T09:54:56;6.80;;;3.70;;
21601;SDS011;10963;50.934;4.668;2023-03-14T09:57:24;5.37;;;3.33;;
21601;SDS011;10963;50.934;4.668;2023-03-14T09:59:51;5.33;;;3.40;;
21601;SDS011;10963;50.934;4.668;2023-03-14T10:02:22;4.90;;;3.30;;
21601;SDS011;10963;50.934;4.668;2023-03-14T10:04:52;7.30;;;3.53;;
21601;SDS011;10963;50.934;4.668;2023-03-14T10:07:23;5.23;;;3.20;;
21601;SDS011;10963;50.934;4.668;2023-03-14T10:09:58;6.47;;;3.43;;
21601;SDS011;10963;50.934;4.668;2023-03-14T10:12:34;5.70;;;3.30;;
21601;SDS011;10963;50.934;4.668;2023-03-14T10:15:05;12.63;;;3.67;;
21601;SDS011;10963;50.934;4.668;2023-03-14T10:17:47;9.03;;;5.10;;
21601;SDS011;10963;50.934;4.668;2023-03-14T10:26:14;7.80;;;3.33;;
21601;SDS011;10963;50.934;4.668;2023-03-14T10:28:50;11.17;;;3.70;;
21601;SDS011;10963;50.934;4.668;2023-03-14T10:31:17;9.67;;;3.47;;
21601;SDS011;10963;50.934;4.668;2023-03-14T10:34:03;10.30;;;3.27;;
21601;SDS011;10963;50.934;4.668;2023-03-14T10:36:32;9.53;;;2.73;;
21601;SDS011;10963;50.934;4.668;2023-03-14T10:42:03;5.53;;;2.00;;
21601;SDS011;10963;50.934;4.668;2023-03-14T10:44:36;4.63;;;2.30;;
21601;SDS011;10963;50.934;4.668;2023-03-14T10:47:03;3.70;;;1.93;;
21601;SDS011;10963;50.934;4.668;2023-03-14T10:49:34;3.80;;;2.00;;
21601;SDS011;10963;50.934;4.668;2023-03-14T10:54:40;4.27;;;1.20;;
21601;SDS011;10963;50.934;4.668;2023-03-14T10:57:14;5.63;;;1.83;;
21601;SDS011;10963;50.934;4.668;2023-03-14T10:59:40;4.30;;;1.70;;
21601;SDS011;10963;50.934;4.668;2023-03-14T11:08:02;4.07;;;1.43;;
21601;SDS011;10963;50.934;4.668;2023-03-14T11:10:39;2.80;;;0.90;;
21601;SDS011;10963;50.934;4.668;2023-03-14T11:15:38;1.23;;;0.80;;
21601;SDS011;10963;50.934;4.668;2023-03-14T11:26:42;2.10;;;0.90;;
21601;SDS011;10963;50.934;4.668;2023-03-14T11:32:28;1.67;;;1.20;;
21601;SDS011;10963;50.934;4.668;2023-03-14T11:35:11;4.20;;;1.00;;
21601;SDS011;10963;50.934;4.668;2023-03-14T11:38:03;3.60;;;1.13;;
21601;SDS011;10963;50.934;4.668;2023-03-14T11:40:51;1.43;;;0.90;;
21601;SDS011;10963;50.934;4.668;2023-03-14T11:43:35;1.00;;;1.00;;
21601;SDS011;10963;50.934;4.668;2023-03-14T11:46:13;1.20;;;1.10;;
21601;SDS011;10963;50.934;4.668;2023-03-14T11:51:27;2.43;;;0.83;;
21601;SDS011;10963;50.934;4.668;2023-03-14T11:54:02;3.30;;;1.20;;
21601;SDS011;10963;50.934;4.668;2023-03-14T11:56:33;1.87;;;0.90;;
21601;SDS011;10963;50.934;4.668;2023-03-14T11:59:07;1.17;;;1.00;;
21601;SDS011;10963;50.934;4.668;2023-03-14T12:02:01;2.20;;;1.00;;
21601;SDS011;10963;50.934;4.668;2023-03-14T12:07:40;2.67;;;0.80;;
21601;SDS011;10963;50.934;4.668;2023-03-14T12:10:23;2.27;;;0.97;;
21601;SDS011;10963;50.934;4.668;2023-03-14T12:12:49;1.20;;;0.90;;
21601;SDS011;10963;50.934;4.668;2023-03-14T12:15:19;2.90;;;1.20;;
21601;SDS011;10963;50.934;4.668;2023-03-14T12:17:47;1.67;;;0.90;;
21601;SDS011;10963;50.934;4.668;2023-03-14T12:20:22;2.40;;;1.00;;
21601;SDS011;10963;50.934;4.668;2023-03-14T12:25:20;2.40;;;0.90;;
21601;SDS011;10963;50.934;4.668;2023-03-14T12:33:11;4.07;;;1.50;;
21601;SDS011;10963;50.934;4.668;2023-03-14T12:39:08;6.67;;;1.63;;
21601;SDS011;10963;50.934;4.668;2023-03-14T12:41:34;7.67;;;1.40;;
21601;SDS011;10963;50.934;4.668;2023-03-14T12:46:59;7.10;;;1.60;;
21601;SDS011;10963;50.934;4.668;2023-03-14T12:49:31;7.30;;;1.70;;
21601;SDS011;10963;50.934;4.668;2023-03-14T12:52:00;9.93;;;2.27;;
21601;SDS011;10963;50.934;4.668;2023-03-14T12:54:43;14.63;;;2.00;;
21601;SDS011;10963;50.934;4.668;2023-03-14T12:57:21;9.87;;;1.77;;
21601;SDS011;10963;50.934;4.668;2023-03-14T12:59:57;15.03;;;2.00;;
21601;SDS011;10963;50.934;4.668;2023-03-14T13:02:37;8.73;;;1.90;;
21601;SDS011;10963;50.934;4.668;2023-03-14T13:05:17;5.37;;;1.77;;
21601;SDS011;10963;50.934;4.668;2023-03-14T13:15:47;2.93;;;1.27;;
21601;SDS011;10963;50.934;4.668;2023-03-14T13:18:18;2.30;;;1.33;;
21601;SDS011;10963;50.934;4.668;2023-03-14T13:21:07;4.90;;;1.60;;
21601;SDS011;10963;50.934;4.668;2023-03-14T13:26:23;3.87;;;1.67;;
21601;SDS011;10963;50.934;4.668;2023-03-14T13:31:49;12.10;;;1.80;;
21601;SDS011;10963;50.934;4.668;2023-03-14T13:34:17;7.63;;;2.37;;
21601;SDS011;10963;50.934;4.668;2023-03-14T13:36:43;11.00;;;1.73;;
21601;SDS011;10963;50.934;4.668;2023-03-14T13:39:13;6.87;;;1.90;;
21601;SDS011;10963;50.934;4.668;2023-03-14T13:41:42;8.93;;;4.80;;
21601;SDS011;10963;50.934;4.668;2023-03-14T13:44:09;7.67;;;2.30;;
21601;SDS011;10963;50.934;4.668;2023-03-14T13:46:46;6.70;;;1.57;;
21601;SDS011;10963;50.934;4.668;2023-03-14T13:49:15;6.10;;;1.37;;
21601;SDS011;10963;50.934;4.668;2023-03-14T13:51:48;7.80;;;2.70;;
21601;SDS011;10963;50.934;4.668;2023-03-14T13:54:18;10.97;;;1.80;;
21601;SDS011;10963;50.934;4.668;2023-03-14T13:56:46;9.90;;;1.50;;
21601;SDS011;10963;50.934;4.668;2023-03-14T13:59:25;8.40;;;1.73;;
21601;SDS011;10963;50.934;4.668;2023-03-14T14:01:55;6.40;;;1.73;;
21601;SDS011;10963;50.934;4.668;2023-03-14T14:04:26;14.73;;;1.97;;
21601;SDS011;10963;50.934;4.668;2023-03-14T14:06:55;15.23;;;2.20;;
21601;SDS011;10963;50.934;4.668;2023-03-14T14:09:36;9.97;;;2.43;;
21601;SDS011;10963;50.934;4.668;2023-03-14T14:14:40;7.43;;;2.20;;
21601;SDS011;10963;50.934;4.668;2023-03-14T14:17:11;13.30;;;2.67;;
21601;SDS011;10963;50.934;4.668;2023-03-14T14:19:40;13.83;;;2.57;;
21601;SDS011;10963;50.934;4.668;2023-03-14T14:22:08;10.43;;;2.40;;
21601;SDS011;10963;50.934;4.668;2023-03-14T14:24:35;10.93;;;2.93;;
21601;SDS011;10963;50.934;4.668;2023-03-14T14:29:57;9.83;;;2.80;;
21601;SDS011;10963;50.934;4.668;2023-03-14T14:32:33;12.97;;;2.23;;
21601;SDS011;10963;50.934;4.668;2023-03-14T14:35:03;8.00;;;2.20;;
21601;SDS011;10963;50.934;4.668;2023-03-14T14:37:31;16.80;;;2.90;;
21601;SDS011;10963;50.934;4.668;2023-03-14T14:40:09;15.53;;;2.80;;
21601;SDS011;10963;50.934;4.668;2023-03-14T14:42:41;15.43;;;2.83;;
21601;SDS011;10963;50.934;4.668;2023-03-14T14:45:12;16.90;;;2.83;;
21601;SDS011;10963;50.934;4.668;2023-03-14T14:47:51;19.37;;;2.70;;
21601;SDS011;10963;50.934;4.668;2023-03-14T14:50:29;11.37;;;2.33;;
21601;SDS011;10963;50.934;4.668;2023-03-14T14:55:57;8.23;;;1.47;;
21601;SDS011;10963;50.934;4.668;2023-03-14T14:58:35;9.87;;;1.23;;
21601;SDS011;10963;50.934;4.668;2023-03-14T15:01:07;5.50;;;1.00;;
21601;SDS011;10963;50.934;4.668;2023-03-14T15:03:41;5.77;;;1.30;;
21601;SDS011;10963;50.934;4.668;2023-03-14T15:06:11;3.17;;;1.13;;
21601;SDS011;10963;50.934;4.668;2023-03-14T15:08:38;5.70;;;1.27;;
21601;SDS011;10963;50.934;4.668;2023-03-14T15:11:08;2.83;;;1.00;;
21601;SDS011;10963;50.934;4.668;2023-03-14T15:13:42;3.67;;;0.70;;
21601;SDS011;10963;50.934;4.668;2023-03-14T15:16:15;5.97;;;1.00;;
21601;SDS011;10963;50.934;4.668;2023-03-14T15:18:42;1.57;;;1.00;;
21601;SDS011;10963;50.934;4.668;2023-03-14T15:21:11;3.67;;;0.90;;
21601;SDS011;10963;50.934;4.668;2023-03-14T15:23:39;4.87;;;0.90;;
21601;SDS011;10963;50.934;4.668;2023-03-14T15:26:17;4.07;;;1.07;;
21601;SDS011;10963;50.934;4.668;2023-03-14T15:28:45;5.63;;;1.30;;
21601;SDS011;10963;50.934;4.668;2023-03-14T15:31:11;5.80;;;1.20;;
21601;SDS011;10963;50.934;4.668;2023-03-14T15:33:40;1.37;;;1.00;;
21601;SDS011;10963;50.934;4.668;2023-03-14T15:39:09;6.97;;;0.93;;
21601;SDS011;10963;50.934;4.668;2023-03-14T15:41:35;3.27;;;1.13;;
21601;SDS011;10963;50.934;4.668;2023-03-14T15:44:01;3.23;;;1.20;;
21601;SDS011;10963;50.934;4.668;2023-03-14T15:46:30;2.17;;;1.17;;
21601;SDS011;10963;50.934;4.668;2023-03-14T15:48:58;5.77;;;1.23;;
21601;SDS011;10963;50.934;4.668;2023-03-14T15:51:26;5.20;;;1.40;;
21601;SDS011;10963;50.934;4.668;2023-03-14T15:53:54;4.27;;;1.70;;
21601;SDS011;10963;50.934;4.668;2023-03-14T15:56:20;8.70;;;1.80;;
21601;SDS011;10963;50.934;4.668;2023-03-14T15:58:50;5.17;;;1.70;;
21601;SDS011;10963;50.934;4.668;2023-03-14T16:01:16;2.40;;;1.17;;
21601;SDS011;10963;50.934;4.668;2023-03-14T16:03:42;5.20;;;1.70;;
21601;SDS011;10963;50.934;4.668;2023-03-14T16:06:11;6.90;;;1.30;;
21601;SDS011;10963;50.934;4.668;2023-03-14T16:08:39;1.70;;;1.00;;
21601;SDS011;10963;50.934;4.668;2023-03-14T16:11:08;6.63;;;2.00;;
21601;SDS011;10963;50.934;4.668;2023-03-14T16:13:34;7.63;;;1.47;;
21601;SDS011;10963;50.934;4.668;2023-03-14T16:16:03;11.37;;;1.50;;
21601;SDS011;10963;50.934;4.668;2023-03-14T16:18:33;11.77;;;1.90;;
21601;SDS011;10963;50.934;4.668;2023-03-14T16:21:04;9.33;;;2.13;;
21601;SDS011;10963;50.934;4.668;2023-03-14T16:23:36;15.80;;;1.90;;